Time;durP1;ratioP1;P1;durP2;ratioP2;P2;SDS_P1;SDS_P2;PMS_P1;PMS_P2;Temp;Humidity;BMP_temperature;BMP_pressure;BME280_temperature;BME280_humidity;BME280_pressure;Samples;Min_cycle;Max_cycle;Signal;HPM_P1;HPM_P2
2022/05/24 00:00:21;;;;;;;9.00;3.50;;;;;;;;;;4825787;29;20307;-38
2022/05/24 00:03:01;;;;;;;4.35;3.15;;;;;;;;;;4825652;29;20254;-38
2022/05/24 00:05:30;;;;;;;7.82;3.58;;;;;;;;;;4825697;29;20213;-38
2022/05/24 00:07:57;;;;;;;4.10;3.70;;;;;;;;;;4825577;29;20228;-38
2022/05/24 00:10:29;;;;;;;10.07;3.65;;;;;;;;;;4825445;29;20208;-38
2022/05/24 00:12:57;;;;;;;6.10;3.75;;;;;;;;;;4825668;29;20224;-38
2022/05/24 00:15:30;;;;;;;5.57;4.05;;;;;;;;;;4825683;29;20208;-38
2022/05/24 00:18:04;;;;;;;6.18;4.38;;;;;;;;;;4826085;29;20319;-38
2022/05/24 00:20:37;;;;;;;9.02;3.97;;;;;;;;;;4825432;29;20212;-38
2022/05/24 00:23:05;;;;;;;11.23;5.07;;;;;;;;;;4826706;29;20542;-38
2022/05/24 00:25:34;;;;;;;8.48;5.25;;;;;;;;;;4813159;29;20231;-38
2022/05/24 00:28:01;;;;;;;6.15;4.68;;;;;;;;;;4828793;29;20242;-38
2022/05/24 00:30:28;;;;;;;7.43;4.55;;;;;;;;;;4798080;29;20208;-38
2022/05/24 00:32:57;;;;;;;5.20;4.05;;;;;;;;;;4828577;29;20211;-38
2022/05/24 00:35:24;;;;;;;7.05;3.67;;;;;;;;;;4828566;29;20241;-38
2022/05/24 00:37:51;;;;;;;6.93;3.42;;;;;;;;;;4828662;29;20298;-38
2022/05/24 00:40:27;;;;;;;6.43;3.33;;;;;;;;;;4829295;29;20223;-38
2022/05/24 00:42:54;;;;;;;3.90;2.95;;;;;;;;;;4829068;29;20207;-38
2022/05/24 00:45:35;;;;;;;7.47;3.55;;;;;;;;;;4828710;29;20215;-38
2022/05/24 00:48:08;;;;;;;4.47;3.15;;;;;;;;;;4842716;29;20232;-38
2022/05/24 00:50:43;;;;;;;5.18;3.60;;;;;;;;;;4828936;29;20207;-38
2022/05/24 00:53:22;;;;;;;5.43;4.15;;;;;;;;;;4842999;29;20303;-38
2022/05/24 00:55:54;;;;;;;4.63;3.22;;;;;;;;;;4828416;29;20239;-38
2022/05/24 00:58:58;;;;;;;3.65;2.80;;;;;;;;;;4843002;29;20204;-38
2022/05/24 01:01:34;;;;;;;5.05;2.60;;;;;;;;;;4812676;29;20542;-38
2022/05/24 01:04:02;;;;;;;5.05;2.70;;;;;;;;;;4842631;29;20633;-38
2022/05/24 01:06:29;;;;;;;6.90;4.38;;;;;;;;;;4828026;29;20232;-38
2022/05/24 01:08:59;;;;;;;6.50;4.07;;;;;;;;;;4828139;29;20216;-38
2022/05/24 01:11:26;;;;;;;4.35;2.85;;;;;;;;;;4842465;29;20291;-38
2022/05/24 01:13:55;;;;;;;3.08;2.70;;;;;;;;;;4812518;29;20208;-38
2022/05/24 01:16:22;;;;;;;4.82;2.85;;;;;;;;;;4828100;29;20236;-38
2022/05/24 01:18:49;;;;;;;3.63;2.75;;;;;;;;;;4812002;29;20216;-38
2022/05/24 01:21:17;;;;;;;7.35;3.15;;;;;;;;;;4828185;29;20215;-38
2022/05/24 01:23:44;;;;;;;3.67;3.08;;;;;;;;;;4827851;29;20687;-38
2022/05/24 01:26:18;;;;;;;3.88;3.20;;;;;;;;;;4827843;29;20535;-38
2022/05/24 01:28:50;;;;;;;4.22;3.40;;;;;;;;;;4827745;29;20199;-38
2022/05/24 01:31:18;;;;;;;4.25;3.30;;;;;;;;;;4812163;29;20203;-38
2022/05/24 01:36:34;;;;;;;5.05;2.90;;;;;;;;;;4827554;29;20276;-38
2022/05/24 01:39:07;;;;;;;6.30;3.40;;;;;;;;;;4827543;29;20545;-38
2022/05/24 01:41:40;;;;;;;7.07;4.28;;;;;;;;;;4827571;29;20201;-39
2022/05/24 01:44:08;;;;;;;6.40;3.90;;;;;;;;;;4811598;29;20212;-38
2022/05/24 01:46:43;;;;;;;5.85;3.70;;;;;;;;;;4827174;29;20577;-38
2022/05/24 01:49:18;;;;;;;4.95;3.65;;;;;;;;;;4841699;29;20271;-38
2022/05/24 01:52:04;;;;;;;5.47;3.45;;;;;;;;;;4811389;29;20631;-38
2022/05/24 01:54:35;;;;;;;5.57;3.72;;;;;;;;;;4811517;29;20196;-38
2022/05/24 01:57:07;;;;;;;5.10;3.70;;;;;;;;;;4827227;29;20539;-38
2022/05/24 01:59:37;;;;;;;6.63;3.58;;;;;;;;;;4827514;29;20204;-38
2022/05/24 02:02:05;;;;;;;4.28;3.83;;;;;;;;;;4827045;29;20300;-38
2022/05/24 02:04:33;;;;;;;4.72;3.70;;;;;;;;;;4826923;29;20223;-38
2022/05/24 02:07:09;;;;;;;4.60;3.83;;;;;;;;;;4827162;29;20216;-38
2022/05/24 02:09:42;;;;;;;4.85;4.28;;;;;;;;;;4827032;29;20487;-38
2022/05/24 02:12:18;;;;;;;4.22;3.50;;;;;;;;;;4826833;29;20228;-38
2022/05/24 02:14:54;;;;;;;5.07;4.03;;;;;;;;;;4826742;29;20711;-38
2022/05/24 02:17:24;;;;;;;5.95;3.45;;;;;;;;;;4841074;29;20243;-38
2022/05/24 02:19:53;;;;;;;4.95;3.70;;;;;;;;;;4826904;29;20270;-38
2022/05/24 02:22:24;;;;;;;4.30;3.55;;;;;;;;;;4826818;29;20208;-39
2022/05/24 02:25:00;;;;;;;4.20;3.80;;;;;;;;;;4826795;29;20216;-39
2022/05/24 02:27:28;;;;;;;4.78;3.85;;;;;;;;;;4840862;29;20231;-38
2022/05/24 02:29:56;;;;;;;7.55;3.90;;;;;;;;;;4826451;29;20300;-38
2022/05/24 02:32:23;;;;;;;6.47;3.45;;;;;;;;;;4826464;29;20216;-38
2022/05/24 02:34:50;;;;;;;5.57;3.92;;;;;;;;;;4826897;29;20212;-38
2022/05/24 02:37:17;;;;;;;3.90;3.42;;;;;;;;;;4826663;29;20307;-38
2022/05/24 02:42:30;;;;;;;3.88;3.47;;;;;;;;;;4826363;29;20643;-38
2022/05/24 02:44:57;;;;;;;4.97;3.97;;;;;;;;;;4825707;29;20223;-38
2022/05/24 02:47:25;;;;;;;4.30;3.72;;;;;;;;;;4826351;29;20235;-38
2022/05/24 02:49:52;;;;;;;4.88;3.72;;;;;;;;;;4826652;29;20223;-38
2022/05/24 02:52:19;;;;;;;4.28;3.88;;;;;;;;;;4826389;29;20299;-38
2022/05/24 02:54:46;;;;;;;5.72;3.85;;;;;;;;;;4826693;29;20216;-38
2022/05/24 02:57:14;;;;;;;5.10;3.67;;;;;;;;;;4826098;29;20722;-39
2022/05/24 02:59:41;;;;;;;5.60;4.45;;;;;;;;;;4826245;29;20212;-38
2022/05/24 03:02:09;;;;;;;5.30;4.65;;;;;;;;;;4826481;29;20212;-38
2022/05/24 03:04:36;;;;;;;6.38;4.40;;;;;;;;;;4826580;29;20196;-38
2022/05/24 03:09:49;;;;;;;8.02;5.22;;;;;;;;;;4826228;29;20545;-38
2022/05/24 03:15:01;;;;;;;7.70;4.28;;;;;;;;;;4826085;29;20568;-38
2022/05/24 03:17:31;;;;;;;7.20;4.63;;;;;;;;;;4826212;29;20299;-38
2022/05/24 03:19:57;;;;;;;7.03;4.20;;;;;;;;;;4826082;29;20545;-38
2022/05/24 03:22:24;;;;;;;10.82;4.32;;;;;;;;;;4826013;29;20216;-38
2022/05/24 03:24:51;;;;;;;9.13;4.80;;;;;;;;;;4825895;29;20216;-38
2022/05/24 03:27:18;;;;;;;7.82;4.75;;;;;;;;;;4826089;29;20265;-38
2022/05/24 03:29:47;;;;;;;5.63;4.28;;;;;;;;;;4826259;29;20208;-38
2022/05/24 03:32:16;;;;;;;7.43;5.50;;;;;;;;;;4826027;29;20604;-38
2022/05/24 03:34:43;;;;;;;7.50;5.30;;;;;;;;;;4826062;29;20307;-38
2022/05/24 03:37:11;;;;;;;7.35;4.72;;;;;;;;;;4825838;29;20657;-38
2022/05/24 03:39:38;;;;;;;6.95;4.65;;;;;;;;;;4826029;29;20643;-38
2022/05/24 03:42:05;;;;;;;10.85;5.63;;;;;;;;;;4825853;29;20208;-38
2022/05/24 03:44:32;;;;;;;9.82;5.88;;;;;;;;;;4825989;29;20211;-38
2022/05/24 03:46:59;;;;;;;11.25;6.05;;;;;;;;;;4825818;29;20212;-38
2022/05/24 03:49:26;;;;;;;8.68;5.57;;;;;;;;;;4825713;29;20241;-38
2022/05/24 03:51:53;;;;;;;7.22;6.15;;;;;;;;;;4825709;29;20219;-38
2022/05/24 03:54:20;;;;;;;8.77;6.40;;;;;;;;;;4825891;29;20208;-38
2022/05/24 03:59:32;;;;;;;10.65;5.68;;;;;;;;;;4829279;29;20565;-38
2022/05/24 04:01:59;;;;;;;6.55;5.63;;;;;;;;;;4829149;29;20280;-38
2022/05/24 04:04:26;;;;;;;7.25;5.93;;;;;;;;;;4828779;29;20280;-38
2022/05/24 04:06:54;;;;;;;8.75;6.18;;;;;;;;;;4822974;29;20235;-41
2022/05/24 04:09:21;;;;;;;8.05;5.72;;;;;;;;;;4826895;29;20246;-39
2022/05/24 04:11:48;;;;;;;7.93;6.20;;;;;;;;;;4827748;29;20264;-38
2022/05/24 04:14:15;;;;;;;9.50;6.30;;;;;;;;;;4826549;29;20242;-39
2022/05/24 04:16:42;;;;;;;9.50;6.10;;;;;;;;;;4822397;29;20231;-39
2022/05/24 04:19:09;;;;;;;7.90;6.15;;;;;;;;;;4812083;29;20235;-38
2022/05/24 04:21:36;;;;;;;9.85;6.20;;;;;;;;;;4827102;29;20328;-38
2022/05/24 04:24:03;;;;;;;10.40;6.22;;;;;;;;;;4827897;29;20240;-38
2022/05/24 04:26:30;;;;;;;9.13;6.68;;;;;;;;;;4827668;29;20239;-38
2022/05/24 04:28:57;;;;;;;12.75;6.55;;;;;;;;;;4827780;29;20313;-39
2022/05/24 04:31:24;;;;;;;9.40;6.47;;;;;;;;;;4809662;29;20713;-42
2022/05/24 04:33:52;;;;;;;7.75;6.60;;;;;;;;;;4810131;29;20256;-38
2022/05/24 04:36:19;;;;;;;10.48;6.45;;;;;;;;;;4809379;29;20244;-39
2022/05/24 04:38:46;;;;;;;9.35;6.63;;;;;;;;;;4809748;29;20293;-38
2022/05/24 04:43:58;;;;;;;8.05;6.70;;;;;;;;;;4826820;29;20239;-38
2022/05/24 04:47:06;;;;;;;10.77;5.85;;;;;;;;;;4827907;29;20277;-38
2022/05/24 04:49:12;;;;;;;9.90;6.05;;;;;;;;;;4827309;29;20243;-38
2022/05/24 04:51:39;;;;;;;8.55;6.55;;;;;;;;;;4826152;29;20266;-39
2022/05/24 04:54:06;;;;;;;11.40;6.40;;;;;;;;;;4825858;29;20236;-38
2022/05/24 04:56:33;;;;;;;8.95;6.05;;;;;;;;;;4827541;29;20296;-38
2022/05/24 04:59:00;;;;;;;10.18;6.18;;;;;;;;;;4827579;29;20243;-38
2022/05/24 05:01:27;;;;;;;9.88;5.63;;;;;;;;;;4828187;29;20208;-38
2022/05/24 05:03:54;;;;;;;11.10;6.20;;;;;;;;;;4828072;29;20223;-38
2022/05/24 05:06:21;;;;;;;8.82;6.18;;;;;;;;;;4827874;29;20216;-40
2022/05/24 05:08:50;;;;;;;9.23;6.20;;;;;;;;;;4830276;29;20653;-38
2022/05/24 05:11:17;;;;;;;10.65;5.78;;;;;;;;;;4829844;29;20235;-38
2022/05/24 05:13:44;;;;;;;9.55;6.47;;;;;;;;;;4829393;29;20277;-40
2022/05/24 05:16:13;;;;;;;12.20;6.25;;;;;;;;;;4828327;29;20227;-39
2022/05/24 05:18:40;;;;;;;8.05;5.72;;;;;;;;;;4828559;29;20220;-38
2022/05/24 05:21:07;;;;;;;8.50;5.28;;;;;;;;;;4828533;29;20204;-40
2022/05/24 05:23:34;;;;;;;6.80;5.57;;;;;;;;;;4828997;29;20212;-39
2022/05/24 05:26:04;;;;;;;8.02;5.57;;;;;;;;;;4829363;29;20229;-39
2022/05/24 05:28:33;;;;;;;7.50;5.28;;;;;;;;;;4828986;29;20232;-38
2022/05/24 05:31:19;;;;;;;10.52;5.25;;;;;;;;;;4828128;29;20212;-39
2022/05/24 05:33:49;;;;;;;7.45;5.32;;;;;;;;;;4828484;29;20647;-40
2022/05/24 05:36:20;;;;;;;8.45;5.10;;;;;;;;;;4827914;29;20196;-39
2022/05/24 05:38:48;;;;;;;7.43;5.30;;;;;;;;;;4827973;29;20224;-40
2022/05/24 05:41:26;;;;;;;8.35;5.43;;;;;;;;;;4827730;29;20269;-38
2022/05/24 05:43:54;;;;;;;7.53;4.78;;;;;;;;;;4827742;29;20285;-40
2022/05/24 05:46:20;;;;;;;9.60;5.28;;;;;;;;;;4827301;29;20619;-40
2022/05/24 05:48:48;;;;;;;8.48;4.78;;;;;;;;;;4827282;29;20686;-39
2022/05/24 05:51:16;;;;;;;8.30;4.90;;;;;;;;;;4812878;29;20292;-48
2022/05/24 05:53:44;;;;;;;8.73;4.90;;;;;;;;;;4827279;29;20228;-40
2022/05/24 05:56:16;;;;;;;5.80;4.57;;;;;;;;;;4827133;29;20243;-40
2022/05/24 05:58:43;;;;;;;7.90;4.20;;;;;;;;;;4827344;29;20211;-40
2022/05/24 06:01:18;;;;;;;9.23;4.50;;;;;;;;;;4827020;29;20223;-40
2022/05/24 06:03:48;;;;;;;7.80;4.00;;;;;;;;;;4827099;29;20197;-41
2022/05/24 06:06:19;;;;;;;6.93;3.78;;;;;;;;;;4827278;29;20220;-41
2022/05/24 06:08:46;;;;;;;4.90;3.40;;;;;;;;;;4827154;29;20251;-41
2022/05/24 06:11:13;;;;;;;6.95;3.53;;;;;;;;;;4826916;29;20208;-40
2022/05/24 06:13:40;;;;;;;3.60;3.30;;;;;;;;;;4826942;29;20280;-40
2022/05/24 06:16:08;;;;;;;5.13;3.00;;;;;;;;;;4826948;29;20220;-40
2022/05/24 06:18:36;;;;;;;7.13;3.15;;;;;;;;;;4827496;29;20220;-40
2022/05/24 06:21:04;;;;;;;7.60;3.03;;;;;;;;;;4826205;29;20676;-40
2022/05/24 06:23:31;;;;;;;8.60;3.15;;;;;;;;;;4826747;29;20671;-40
2022/05/24 06:25:58;;;;;;;10.23;2.75;;;;;;;;;;4826907;29;20223;-41
2022/05/24 06:28:26;;;;;;;4.13;2.90;;;;;;;;;;4827136;29;20634;-41
2022/05/24 06:30:53;;;;;;;3.65;2.80;;;;;;;;;;4826938;29;20212;-41
2022/05/24 06:33:20;;;;;;;3.35;2.70;;;;;;;;;;4826073;29;20667;-42
2022/05/24 06:35:47;;;;;;;9.95;3.00;;;;;;;;;;4826785;29;20212;-41
2022/05/24 06:38:15;;;;;;;3.88;2.80;;;;;;;;;;4826342;29;20229;-42
2022/05/24 06:40:43;;;;;;;4.95;2.22;;;;;;;;;;4826692;29;20219;-42
2022/05/24 06:43:10;;;;;;;5.53;2.38;;;;;;;;;;4826352;29;20606;-40
2022/05/24 06:45:38;;;;;;;3.88;2.22;;;;;;;;;;4826249;29;20212;-41
2022/05/24 06:48:11;;;;;;;4.07;2.65;;;;;;;;;;4826152;29;20243;-40
2022/05/24 06:50:41;;;;;;;4.35;2.70;;;;;;;;;;4826665;29;20295;-40
2022/05/24 06:53:17;;;;;;;3.35;2.10;;;;;;;;;;5112746;27;20552;-41
2022/05/24 06:55:44;;;;;;;3.78;2.20;;;;;;;;;;5112327;28;20201;-41
2022/05/24 06:58:11;;;;;;;7.13;2.10;;;;;;;;;;5112758;28;20222;-40
2022/05/24 07:03:30;;;;;;;3.08;2.15;;;;;;;;;;5112572;28;20247;-40
2022/05/24 07:05:57;;;;;;;6.72;2.17;;;;;;;;;;5112764;28;20209;-40
2022/05/24 07:08:24;;;;;;;7.90;2.10;;;;;;;;;;5112454;28;20247;-40
2022/05/24 07:10:51;;;;;;;6.80;2.08;;;;;;;;;;5112226;28;20545;-40
2022/05/24 07:13:19;;;;;;;6.70;2.00;;;;;;;;;;5112585;28;20202;-40
2022/05/24 07:15:46;;;;;;;3.50;2.08;;;;;;;;;;5112059;28;20212;-41
2022/05/24 07:18:14;;;;;;;3.75;2.00;;;;;;;;;;5112380;28;20198;-43
2022/05/24 07:20:41;;;;;;;3.95;1.83;;;;;;;;;;5112120;28;20263;-41
2022/05/24 07:23:15;;;;;;;6.40;2.00;;;;;;;;;;5112396;28;20198;-40
2022/05/24 07:25:43;;;;;;;2.70;2.22;;;;;;;;;;5112185;28;20194;-41
2022/05/24 07:28:11;;;;;;;3.35;2.13;;;;;;;;;;5111939;28;20194;-40
2022/05/24 07:30:39;;;;;;;2.17;1.67;;;;;;;;;;5112238;28;20207;-41
2022/05/24 07:33:06;;;;;;;5.22;1.75;;;;;;;;;;5112114;28;20232;-40
2022/05/24 07:35:33;;;;;;;5.05;1.92;;;;;;;;;;5112184;28;20284;-45
2022/05/24 07:38:00;;;;;;;3.72;1.83;;;;;;;;;;5111889;28;20261;-41
2022/05/24 07:46:08;;;;;;;3.03;1.60;;;;;;;;;;5091612;28;20200;-40
2022/05/24 07:48:35;;;;;;;3.33;2.03;;;;;;;;;;5091493;28;20194;-40
2022/05/24 07:51:03;;;;;;;5.35;1.80;;;;;;;;;;5091474;28;20260;-41
2022/05/24 07:53:30;;;;;;;7.03;1.98;;;;;;;;;;5090726;28;20252;-40
2022/05/24 07:55:57;;;;;;;5.43;2.03;;;;;;;;;;5090050;28;20268;-41
2022/05/24 07:58:25;;;;;;;8.07;2.03;;;;;;;;;;5091431;28;20206;-41
2022/05/24 08:00:55;;;;;;;2.33;1.70;;;;;;;;;;5091275;28;20227;-40
2022/05/24 08:03:22;;;;;;;2.88;1.73;;;;;;;;;;5084924;28;20199;-41
2022/05/24 08:05:49;;;;;;;4.05;1.85;;;;;;;;;;5077588;28;20340;-41
2022/05/24 08:08:17;;;;;;;4.40;2.10;;;;;;;;;;5077345;28;20624;-40
2022/05/24 08:10:44;;;;;;;3.75;2.03;;;;;;;;;;5077564;28;20530;-40
2022/05/24 08:13:14;;;;;;;3.00;1.83;;;;;;;;;;5077485;28;20284;-41
2022/05/24 08:15:42;;;;;;;6.40;2.20;;;;;;;;;;5077373;28;20272;-40
2022/05/24 08:18:09;;;;;;;5.32;1.80;;;;;;;;;;5077389;28;20531;-41
2022/05/24 08:20:37;;;;;;;4.78;1.73;;;;;;;;;;5077003;28;20678;-40
2022/05/24 08:23:04;;;;;;;6.18;2.08;;;;;;;;;;5077362;28;20202;-40
2022/05/24 08:25:37;;;;;;;4.78;1.75;;;;;;;;;;5077257;28;20202;-40
2022/05/24 08:28:07;;;;;;;7.25;1.70;;;;;;;;;;5077254;28;20272;-41
2022/05/24 08:30:37;;;;;;;2.25;1.65;;;;;;;;;;5077182;28;20268;-40
2022/05/24 08:33:04;;;;;;;4.47;1.70;;;;;;;;;;5077007;28;20231;-41
2022/05/24 08:35:33;;;;;;;3.63;1.80;;;;;;;;;;5077033;28;20290;-40
2022/05/24 08:38:02;;;;;;;3.05;1.92;;;;;;;;;;5077070;28;20260;-40
2022/05/24 08:40:30;;;;;;;2.20;2.00;;;;;;;;;;5076675;28;20542;-41
2022/05/24 08:43:40;;;;;;;5.10;1.85;;;;;;;;;;5076320;28;20203;-40
2022/05/24 08:49:08;;;;;;;3.60;1.70;;;;;;;;;;5075871;28;20196;-40
2022/05/24 08:51:39;;;;;;;6.55;1.92;;;;;;;;;;5075501;28;20239;-40
2022/05/24 08:54:10;;;;;;;4.68;1.55;;;;;;;;;;5076605;28;20199;-40
2022/05/24 08:56:58;;;;;;;2.78;1.88;;;;;;;;;;5076706;28;20187;-41
2022/05/24 08:59:36;;;;;;;3.55;1.60;;;;;;;;;;5075447;28;20183;-41
2022/05/24 09:02:06;;;;;;;3.95;1.90;;;;;;;;;;5075828;28;20191;-41
2022/05/24 09:04:33;;;;;;;6.43;1.90;;;;;;;;;;5075812;28;20207;-41
2022/05/24 09:07:05;;;;;;;5.57;1.63;;;;;;;;;;5076124;28;20524;-40
2022/05/24 09:09:54;;;;;;;2.20;1.60;;;;;;;;;;5075613;28;20191;-40
2022/05/24 09:12:30;;;;;;;3.42;1.77;;;;;;;;;;5076306;28;20203;-40
2022/05/24 09:15:10;;;;;;;3.95;2.05;;;;;;;;;;5075310;28;20518;-40
2022/05/24 09:17:47;;;;;;;2.13;1.73;;;;;;;;;;5076279;28;20245;-41
2022/05/24 09:20:39;;;;;;;4.93;2.00;;;;;;;;;;5075684;28;20241;-40
2022/05/24 09:23:21;;;;;;;3.05;1.90;;;;;;;;;;5075976;28;20249;-40
2022/05/24 09:26:05;;;;;;;5.38;2.08;;;;;;;;;;5075845;28;20595;-40
2022/05/24 09:28:47;;;;;;;3.72;1.75;;;;;;;;;;5076106;28;20180;-42
2022/05/24 09:31:38;;;;;;;2.28;1.90;;;;;;;;;;5075993;28;20612;-41
2022/05/24 09:34:12;;;;;;;4.68;1.90;;;;;;;;;;5074725;28;20709;-40
2022/05/24 09:36:41;;;;;;;6.35;2.00;;;;;;;;;;5076308;28;20253;-40
2022/05/24 09:39:32;;;;;;;3.40;2.00;;;;;;;;;;5075822;28;20207;-40
2022/05/24 09:42:08;;;;;;;5.28;1.65;;;;;;;;;;5075483;28;20624;-40
2022/05/24 09:44:45;;;;;;;4.55;1.90;;;;;;;;;;5075114;28;20187;-41
2022/05/24 09:47:31;;;;;;;3.22;1.80;;;;;;;;;;5075449;28;20651;-40
2022/05/24 09:50:36;;;;;;;6.47;1.92;;;;;;;;;;5083551;28;20187;-40
2022/05/24 09:53:22;;;;;;;2.75;1.73;;;;;;;;;;5095272;28;20724;-41
2022/05/24 09:56:05;;;;;;;1.88;1.65;;;;;;;;;;5095915;28;20526;-40
2022/05/24 09:58:32;;;;;;;5.05;1.67;;;;;;;;;;5095525;28;20199;-40
2022/05/24 10:01:11;;;;;;;3.92;2.00;;;;;;;;;;5095381;28;20202;-39
2022/05/24 10:03:42;;;;;;;4.75;1.63;;;;;;;;;;5095419;28;20202;-40
2022/05/24 10:06:29;;;;;;;3.67;1.90;;;;;;;;;;5095637;28;20190;-39
2022/05/24 10:08:59;;;;;;;3.42;1.70;;;;;;;;;;5095842;28;20638;-41
2022/05/24 10:11:39;;;;;;;5.82;1.83;;;;;;;;;;5095470;28;20210;-41
2022/05/24 10:14:38;;;;;;;4.30;1.55;;;;;;;;;;5095725;28;20187;-40
2022/05/24 10:17:26;;;;;;;3.85;1.80;;;;;;;;;;5092675;28;20206;-44
2022/05/24 10:19:56;;;;;;;2.40;1.67;;;;;;;;;;5095281;28;20191;-40
2022/05/24 10:22:41;;;;;;;2.53;1.70;;;;;;;;;;5095653;28;20284;-41
2022/05/24 10:25:16;;;;;;;2.58;1.73;;;;;;;;;;5094764;28;20289;-40
2022/05/24 10:28:01;;;;;;;5.22;2.38;;;;;;;;;;5094378;28;20626;-41
2022/05/24 10:30:51;;;;;;;2.45;1.88;;;;;;;;;;5095783;28;20206;-40
2022/05/24 10:39:45;;;;;;;2.58;1.60;;;;;;;;;;5094869;28;20650;-41
2022/05/24 10:42:44;;;;;;;1.58;1.33;;;;;;;;;;5094821;28;20191;-42
2022/05/24 10:45:17;;;;;;;5.63;1.77;;;;;;;;;;5093981;28;20542;-40
2022/05/24 10:47:57;;;;;;;2.97;1.70;;;;;;;;;;5095406;28;20274;-41
2022/05/24 10:50:34;;;;;;;7.28;1.80;;;;;;;;;;5093849;28;20608;-40
2022/05/24 10:53:24;;;;;;;3.13;1.67;;;;;;;;;;5094241;28;20244;-41
2022/05/24 10:56:06;;;;;;;2.22;1.60;;;;;;;;;;5094870;28;20256;-41
2022/05/24 10:58:36;;;;;;;3.55;1.83;;;;;;;;;;5093863;28;20182;-41
2022/05/24 11:01:25;;;;;;;11.63;2.05;;;;;;;;;;5093720;28;20211;-41
2022/05/24 11:03:56;;;;;;;5.43;1.60;;;;;;;;;;5094272;28;20210;-40
2022/05/24 11:06:29;;;;;;;7.35;2.03;;;;;;;;;;5094310;28;20202;-40
2022/05/24 11:09:02;;;;;;;4.00;1.73;;;;;;;;;;5093857;28;20234;-41
2022/05/24 11:11:36;;;;;;;2.80;1.67;;;;;;;;;;5094139;28;20191;-41
2022/05/24 11:14:10;;;;;;;3.38;1.77;;;;;;;;;;5093931;28;20239;-40
2022/05/24 11:16:42;;;;;;;4.00;2.03;;;;;;;;;;5094504;28;20537;-40
2022/05/24 11:19:22;;;;;;;5.00;2.03;;;;;;;;;;5094977;28;20194;-41
2022/05/24 11:22:04;;;;;;;4.05;1.75;;;;;;;;;;5094784;28;20572;-40
2022/05/24 11:24:34;;;;;;;3.75;1.85;;;;;;;;;;5095038;28;20187;-41
2022/05/24 11:27:01;;;;;;;2.58;1.60;;;;;;;;;;5094601;28;20206;-41
2022/05/24 11:29:38;;;;;;;3.50;1.80;;;;;;;;;;5094932;28;20215;-41
2022/05/24 11:32:07;;;;;;;4.97;1.80;;;;;;;;;;5094382;28;20191;-41
2022/05/24 11:34:54;;;;;;;3.88;1.83;;;;;;;;;;5093100;28;20272;-44
2022/05/24 11:37:28;;;;;;;4.10;1.90;;;;;;;;;;5107240;28;20223;-41
2022/05/24 11:39:55;;;;;;;3.05;1.70;;;;;;;;;;5096952;28;20243;-42
2022/05/24 11:42:46;;;;;;;3.40;1.85;;;;;;;;;;5096520;28;20230;-43
2022/05/24 11:45:27;;;;;;;6.00;1.73;;;;;;;;;;5097095;28;20308;-40
2022/05/24 11:47:55;;;;;;;5.65;1.48;;;;;;;;;;5097341;28;20226;-40
2022/05/24 11:50:30;;;;;;;5.57;1.85;;;;;;;;;;5096314;28;20242;-40
2022/05/24 11:53:15;;;;;;;6.30;2.10;;;;;;;;;;5097399;28;20234;-40
2022/05/24 11:56:09;;;;;;;3.45;1.90;;;;;;;;;;5097286;28;20252;-40
2022/05/24 11:58:36;;;;;;;3.28;1.70;;;;;;;;;;5098279;28;20191;-41
2022/05/24 12:01:08;;;;;;;2.95;2.15;;;;;;;;;;5098120;28;20194;-40
2022/05/24 12:09:22;;;;;;;4.95;1.70;;;;;;;;;;5097565;28;20191;-44
2022/05/24 12:12:24;;;;;;;4.93;1.60;;;;;;;;;;5097608;28;20236;-41
2022/05/24 12:15:10;;;;;;;12.35;2.10;;;;;;;;;;5096899;28;20206;-41
2022/05/24 12:17:38;;;;;;;2.03;1.70;;;;;;;;;;5097019;28;20202;-41
2022/05/24 12:20:25;;;;;;;3.17;1.77;;;;;;;;;;5097554;28;20203;-41
2022/05/24 12:23:15;;;;;;;3.55;1.67;;;;;;;;;;5098311;28;20201;-41
2022/05/24 12:25:55;;;;;;;2.28;1.60;;;;;;;;;;5097398;28;20606;-40
2022/05/24 12:28:50;;;;;;;4.05;1.58;;;;;;;;;;5097252;28;20628;-41
2022/05/24 12:31:17;;;;;;;2.60;1.60;;;;;;;;;;5089586;28;20554;-41
2022/05/24 12:33:52;;;;;;;2.10;1.65;;;;;;;;;;5097310;28;20586;-40
2022/05/24 12:36:39;;;;;;;11.18;2.33;;;;;;;;;;5097688;28;20206;-40
2022/05/24 12:39:26;;;;;;;6.38;1.95;;;;;;;;;;5097453;28;20183;-40
2022/05/24 12:41:59;;;;;;;4.25;1.70;;;;;;;;;;5097336;28;20203;-41
2022/05/24 12:44:31;;;;;;;4.78;1.52;;;;;;;;;;5096508;28;20218;-41
2022/05/24 12:47:02;;;;;;;5.65;1.70;;;;;;;;;;5096961;28;20219;-41
2022/05/24 12:49:38;;;;;;;2.08;1.67;;;;;;;;;;5097995;28;20512;-41
2022/05/24 12:52:05;;;;;;;3.25;1.92;;;;;;;;;;5096019;28;20234;-41
2022/05/24 12:54:34;;;;;;;3.58;1.60;;;;;;;;;;5096703;28;20241;-41
2022/05/24 12:57:05;;;;;;;3.47;1.70;;;;;;;;;;5096830;28;20195;-41
2022/05/24 12:59:40;;;;;;;5.43;1.73;;;;;;;;;;5096770;28;20191;-42
2022/05/24 13:02:19;;;;;;;4.00;1.45;;;;;;;;;;5096587;28;20244;-42
2022/05/24 13:04:47;;;;;;;2.95;1.80;;;;;;;;;;5096572;28;20194;-41
2022/05/24 13:07:36;;;;;;;5.60;1.90;;;;;;;;;;5096579;28;20186;-41
2022/05/24 13:10:18;;;;;;;4.95;1.92;;;;;;;;;;5096108;28;20627;-41
2022/05/24 13:12:55;;;;;;;2.40;1.65;;;;;;;;;;5096790;28;20214;-41
2022/05/24 13:15:25;;;;;;;2.75;1.67;;;;;;;;;;5096739;28;20187;-41
2022/05/24 13:17:54;;;;;;;6.43;1.70;;;;;;;;;;5096182;28;20198;-41
2022/05/24 13:20:21;;;;;;;2.53;1.70;;;;;;;;;;5095240;28;20233;-41
2022/05/24 13:22:52;;;;;;;4.60;2.00;;;;;;;;;;5096619;28;20267;-43
2022/05/24 13:25:42;;;;;;;3.67;2.10;;;;;;;;;;5095321;28;20191;-42
2022/05/24 13:28:10;;;;;;;5.45;1.70;;;;;;;;;;5096038;28;20194;-41
2022/05/24 13:33:46;;;;;;;4.68;2.63;;;;;;;;;;5095385;28;20231;-40
2022/05/24 13:36:15;;;;;;;3.00;1.50;;;;;;;;;;5095016;28;20187;-41
2022/05/24 13:39:14;;;;;;;5.45;1.67;;;;;;;;;;5096179;28;20195;-41
2022/05/24 13:42:02;;;;;;;7.85;2.30;;;;;;;;;;5092964;28;20665;-41
2022/05/24 13:45:08;;;;;;;2.75;1.75;;;;;;;;;;5096018;28;20198;-41
2022/05/24 13:47:38;;;;;;;3.03;1.90;;;;;;;;;;5096079;28;20200;-41
2022/05/24 13:50:27;;;;;;;6.07;1.90;;;;;;;;;;5095519;28;20565;-41
2022/05/24 13:53:00;;;;;;;2.85;1.70;;;;;;;;;;5094699;28;20313;-41
2022/05/24 13:55:40;;;;;;;7.03;1.85;;;;;;;;;;5096033;28;20190;-38
2022/05/24 13:58:28;;;;;;;7.15;1.90;;;;;;;;;;5096110;28;20510;-38
2022/05/24 14:01:05;;;;;;;1.90;1.67;;;;;;;;;;5094444;28;20696;-39
2022/05/24 14:03:48;;;;;;;4.80;2.00;;;;;;;;;;5095842;28;20273;-39
2022/05/24 14:06:21;;;;;;;3.13;1.88;;;;;;;;;;5095497;28;20213;-40
2022/05/24 14:08:52;;;;;;;5.13;2.15;;;;;;;;;;5095123;28;20206;-40
2022/05/24 14:11:24;;;;;;;3.38;2.10;;;;;;;;;;5089871;28;20280;-40
2022/05/24 14:13:51;;;;;;;4.07;2.00;;;;;;;;;;5094578;28;20245;-41
2022/05/24 14:16:19;;;;;;;2.53;1.55;;;;;;;;;;5093373;28;20237;-39
2022/05/24 14:18:46;;;;;;;3.75;2.00;;;;;;;;;;5094635;28;20284;-39
2022/05/24 14:21:17;;;;;;;4.03;1.67;;;;;;;;;;5081933;28;20691;-40
2022/05/24 14:23:44;;;;;;;3.42;2.15;;;;;;;;;;5093584;28;20218;-39
2022/05/24 14:26:11;;;;;;;4.22;1.75;;;;;;;;;;5093317;28;20627;-39
2022/05/24 14:28:38;;;;;;;4.40;1.67;;;;;;;;;;5094641;28;20222;-40
2022/05/24 14:31:05;;;;;;;5.10;1.73;;;;;;;;;;5094633;28;20242;-39
2022/05/24 14:33:33;;;;;;;3.25;2.05;;;;;;;;;;5094574;28;20272;-43
2022/05/24 14:36:00;;;;;;;2.65;1.73;;;;;;;;;;5089156;28;20656;-40
2022/05/24 14:38:30;;;;;;;2.50;1.55;;;;;;;;;;5087687;28;20246;-41
2022/05/24 14:41:16;;;;;;;2.53;1.90;;;;;;;;;;5090612;27;20241;-40
2022/05/24 14:43:59;;;;;;;2.75;1.73;;;;;;;;;;5091760;28;20321;-42
2022/05/24 14:46:28;;;;;;;6.93;2.08;;;;;;;;;;5093978;28;20229;-41
2022/05/24 14:48:56;;;;;;;4.45;1.52;;;;;;;;;;5093438;28;20608;-42
2022/05/24 14:51:30;;;;;;;4.45;1.90;;;;;;;;;;5092950;28;20230;-40
2022/05/24 14:54:02;;;;;;;6.18;2.00;;;;;;;;;;5090492;28;20245;-40
2022/05/24 14:56:36;;;;;;;4.05;1.73;;;;;;;;;;5091861;28;20588;-41
2022/05/24 14:59:03;;;;;;;6.35;1.70;;;;;;;;;;5093841;28;20289;-40
2022/05/24 15:01:30;;;;;;;2.60;2.13;;;;;;;;;;5093440;27;20239;-42
2022/05/24 15:03:57;;;;;;;5.20;1.90;;;;;;;;;;5091092;28;20222;-40
2022/05/24 15:06:24;;;;;;;7.72;2.10;;;;;;;;;;5093576;28;20222;-40
2022/05/24 15:17:11;;;;;;;11.32;2.33;;;;;;;;;;5097693;28;20719;-41
2022/05/24 15:19:40;;;;;;;3.63;1.88;;;;;;;;;;5098025;28;20283;-40
2022/05/24 15:22:08;;;;;;;4.05;1.73;;;;;;;;;;5097875;28;20229;-41
2022/05/24 15:24:38;;;;;;;6.93;2.03;;;;;;;;;;5096578;28;20227;-40
2022/05/24 15:27:13;;;;;;;4.15;1.90;;;;;;;;;;5096489;28;20249;-41
2022/05/24 15:29:40;;;;;;;6.93;2.20;;;;;;;;;;5096913;28;20283;-40
2022/05/24 15:32:08;;;;;;;2.67;1.83;;;;;;;;;;5097531;28;20242;-41
2022/05/24 15:34:35;;;;;;;4.30;1.80;;;;;;;;;;5097841;28;20234;-40
2022/05/24 15:37:02;;;;;;;3.38;1.80;;;;;;;;;;5097166;28;20674;-40
2022/05/24 15:39:29;;;;;;;2.55;1.70;;;;;;;;;;5097458;28;20257;-39
2022/05/24 15:41:56;;;;;;;5.68;2.13;;;;;;;;;;5096896;28;20219;-39
2022/05/24 15:44:23;;;;;;;2.97;1.90;;;;;;;;;;5096913;28;20670;-40
2022/05/24 15:46:55;;;;;;;3.53;1.90;;;;;;;;;;5097161;28;20249;-41
2022/05/24 15:49:27;;;;;;;3.10;1.67;;;;;;;;;;5097662;28;20227;-39
2022/05/24 15:51:55;;;;;;;2.58;1.90;;;;;;;;;;5097450;28;20238;-42
2022/05/24 15:54:23;;;;;;;2.80;1.80;;;;;;;;;;5096867;28;20253;-40
2022/05/24 15:56:50;;;;;;;5.15;1.90;;;;;;;;;;5097070;28;20793;-41
2022/05/24 15:59:17;;;;;;;5.65;2.28;;;;;;;;;;5097255;28;20296;-39
2022/05/24 16:01:44;;;;;;;4.00;2.17;;;;;;;;;;5097691;28;20295;-40
2022/05/24 16:04:11;;;;;;;2.72;1.95;;;;;;;;;;5096987;28;20284;-39